Sprague River, OR (97639)

10:08 AM PST on February 11, 2016 (GMT -0800)
Soaring Eagles Ranch | | Change Station
CLOSE
Current Station
Personal Weather Station
Location: Chiloquin, OR
Elevation: 4314 ft
Nearby Weather Stations

Elev 4314 ft 42.58 °N, 121.74 °W | Updated 9 minutes ago

Partly Cloudy
Partly Cloudy
38.8 °F
Feels Like 39 °F
N
0.0
Wind Variable Wind from West

Today
High -- | Low -- °F
--% Chance of Precip.
Yesterday
High -- | Low -- °F
Precip. -- in
Pressure 30.25 in
Visibility 10.0 miles
Clouds Mostly Cloudy 12000 ft
Windchill 39 °F
Dew Point 33 °F
Humidity 80%
Rainfall 0.00 in
Snow Depth Not available.
7:08 AM 5:32 PM
Waxing Crescent, 13% visible
METAR KLMT 111753Z 25004KT 10SM BKN120 07/02 A3025 RMK AO2 SLP243 60000 T00720017 10072 20022 50003
Pressure 30.25 in
Visibility 10.0 miles
Clouds Mostly Cloudy 12000 ft
Windchill 39 °F
Dew Point 33 °F
Humidity 80%
Rainfall 0.00 in
Snow Depth Not available.
7:08 AM 5:32 PM
Waxing Crescent, 13% visible
METAR KLMT 111753Z 25004KT 10SM BKN120 07/02 A3025 RMK AO2 SLP243 60000 T00720017 10072 20022 50003

10-Day Weather Forecast

Almanac

Astronomy

Feb. 11, 2016 Rise Set
Actual Time
Civil Twilight
Nautical Twilight
Astronomical Twilight
Moon
Length of Visible Light
Length of Day
Tomorrow will be .
, % of the Moon is Illuminated

Today's Extremes

State Highs State Lows

Community

WunderPhotos

Upload Photos

1,892,121 photos uploaded!

WunderBlog® & News

Nearby

Air Quality

  Air Quality AQ Index Pollutant
Not available.

Snow Depth

Station Depth Elevation

Earthquake Activity

City Distance Mag. Time & Date
Minimum magnitude displayed is 2.5.

Coastal Water Temperatures

Place Temperature

Stations

Nearby Weather Stations

Station Location Temp. Windchill Dew Point Humidity Wind Precip. Elev Updated Type
                   

Watches & Warnings

There are currently no watches in effect.